Time;durP1;ratioP1;P1;durP2;ratioP2;P2;SDS_P1;SDS_P2;PMS_P1;PMS_P2;Temp;Humidity;BMP_temperature;BMP_pressure;BME280_temperature;BME280_humidity;BME280_pressure;Samples;Min_cycle;Max_cycle;Signal;HPM_P1;HPM_P2
2023/10/02 00:05:08;;;;;;;32.80;16.10;;;;;;;13.76;100.00;100797.16;106300;1288;73407;-88
2023/10/02 00:07:37;;;;;;;27.50;15.30;;;;;;;13.72;100.00;100793.92;106284;1288;73396;-91
2023/10/02 00:10:04;;;;;;;32.30;15.90;;;;;;;13.70;100.00;100790.63;106338;1288;62824;-86
2023/10/02 00:12:32;;;;;;;26.90;16.70;;;;;;;13.71;100.00;100795.67;106245;1288;61209;-85
2023/10/02 00:14:58;;;;;;;33.50;15.80;;;;;;;13.70;100.00;100797.67;106298;1288;75341;-84
2023/10/02 00:17:44;;;;;;;39.70;17.80;;;;;;;13.70;100.00;100796.09;106719;1284;73362;-90
2023/10/02 00:20:22;;;;;;;32.40;17.30;;;;;;;13.71;100.00;100795.30;106878;1284;59154;-84
2023/10/02 00:22:48;;;;;;;27.60;15.90;;;;;;;13.72;100.00;100791.33;106844;1284;62803;-87
2023/10/02 00:25:21;;;;;;;35.20;16.20;;;;;;;13.72;100.00;100790.68;106602;1286;59181;-88
2023/10/02 00:27:51;;;;;;;32.10;15.60;;;;;;;13.74;100.00;100790.77;106877;1285;75937;-88
2023/10/02 00:30:20;;;;;;;34.70;15.50;;;;;;;13.77;100.00;100785.95;106626;1285;73270;-82
2023/10/02 00:32:47;;;;;;;30.20;15.80;;;;;;;13.79;100.00;100783.33;106882;1284;72414;-89
2023/10/02 00:35:13;;;;;;;26.90;14.40;;;;;;;13.80;100.00;100784.52;106571;1284;62617;-89
2023/10/02 00:37:52;;;;;;;25.40;14.30;;;;;;;13.79;100.00;100783.70;106699;1285;59435;-85
2023/10/02 00:40:21;;;;;;;28.20;14.20;;;;;;;13.80;100.00;100784.85;106388;1285;353564;-84
2023/10/02 00:43:33;;;;;;;29.00;14.90;;;;;;;13.80;100.00;100784.23;106407;1284;73645;-88
2023/10/02 00:45:49;;;;;;;29.80;14.10;;;;;;;13.80;100.00;100787.08;106679;1285;72088;-83
2023/10/02 00:48:25;;;;;;;28.60;12.90;;;;;;;13.81;100.00;100788.63;106603;1281;62748;-87
2023/10/02 00:50:54;;;;;;;22.40;12.10;;;;;;;13.82;100.00;100790.36;106913;1281;59173;-85
2023/10/02 00:53:40;;;;;;;26.10;12.40;;;;;;;13.85;100.00;100789.39;107245;1280;74516;-85
2023/10/02 00:56:28;;;;;;;24.60;11.90;;;;;;;13.88;100.00;100791.32;107371;1280;72909;-83
2023/10/02 00:59:00;;;;;;;23.00;11.20;;;;;;;13.93;100.00;100791.68;107024;1280;73563;-84
2023/10/02 01:01:31;;;;;;;26.20;11.20;;;;;;;13.98;100.00;100796.92;106857;1284;61698;-82
2023/10/02 01:04:09;;;;;;;25.00;10.80;;;;;;;14.02;100.00;100797.88;106431;1284;60396;-82
2023/10/02 01:07:04;;;;;;;21.00;10.70;;;;;;;14.04;100.00;100794.13;106478;1284;74542;-83
2023/10/02 01:09:34;;;;;;;24.70;11.00;;;;;;;14.07;100.00;100794.81;106560;1285;74299;-82
2023/10/02 01:11:59;;;;;;;22.70;9.70;;;;;;;14.09;100.00;100789.29;106581;1284;73644;-84
2023/10/02 01:17:29;;;;;;;22.00;9.80;;;;;;;14.14;100.00;100790.88;106139;1291;60153;-83
2023/10/02 01:20:01;;;;;;;20.00;9.70;;;;;;;14.15;100.00;100793.65;106145;1291;59151;-87
2023/10/02 01:22:30;;;;;;;21.80;10.00;;;;;;;14.17;100.00;100798.17;106088;1291;74431;-83
2023/10/02 01:25:12;;;;;;;17.90;9.50;;;;;;;14.18;100.00;100805.07;106062;1291;73150;-82
2023/10/02 01:27:47;;;;;;;23.10;9.50;;;;;;;14.19;100.00;100806.41;106140;1291;62582;-85
2023/10/02 01:30:20;;;;;;;20.90;9.30;;;;;;;14.21;100.00;100805.38;106057;1291;59216;-84
2023/10/02 01:33:14;;;;;;;;;;;;;;;14.23;100.00;100803.19;106177;1291;74261;-83
2023/10/02 01:35:50;;;;;;;22.60;9.20;;;;;;;14.25;100.00;100804.86;106337;1287;74122;-84
2023/10/02 01:38:33;;;;;;;18.60;8.90;;;;;;;14.26;100.00;100800.80;106270;1287;72368;-83
2023/10/02 01:41:04;;;;;;;19.10;9.00;;;;;;;14.28;100.00;100801.45;106253;1291;62768;-84
2023/10/02 01:43:32;;;;;;;18.70;8.90;;;;;;;14.29;100.00;100803.27;106443;1288;59455;-84
2023/10/02 01:46:00;;;;;;;17.00;7.60;;;;;;;14.30;100.00;100805.98;106398;1288;75167;-84
2023/10/02 01:48:36;;;;;;;18.80;8.50;;;;;;;14.27;100.00;100809.09;106315;1288;74482;-83
2023/10/02 01:51:25;;;;;;;19.30;7.60;;;;;;;14.24;100.00;100809.86;106492;1288;73460;-84
2023/10/02 01:53:56;;;;;;;24.00;8.10;;;;;;;14.28;100.00;100814.07;107316;1280;61756;-83
2023/10/02 01:56:30;;;;;;;16.30;7.20;;;;;;;14.27;100.00;100814.13;106847;1284;59222;-85
2023/10/02 01:59:10;;;;;;;20.90;7.70;;;;;;;14.24;100.00;100812.36;106727;1284;75087;-82
2023/10/02 02:01:52;;;;;;;17.30;7.50;;;;;;;14.23;100.00;100818.11;106868;1284;74195;-89
2023/10/02 02:04:27;;;;;;;16.60;7.40;;;;;;;14.20;100.00;100824.69;106654;1284;73599;-85
2023/10/02 02:06:57;;;;;;;14.00;6.70;;;;;;;14.16;100.00;100834.57;106481;1285;61692;-85
2023/10/02 02:09:24;;;;;;;17.80;7.10;;;;;;;14.13;100.00;100837.71;106725;1284;61101;-84
2023/10/02 02:12:18;;;;;;;14.10;6.90;;;;;;;14.13;100.00;100834.63;106421;1285;74653;-83
2023/10/02 02:14:52;;;;;;;22.00;6.90;;;;;;;14.08;100.00;100837.31;106279;1291;74445;-90
2023/10/02 02:17:26;;;;;;;16.40;6.50;;;;;;;14.05;100.00;100840.20;106054;1291;72457;-84
2023/10/02 02:19:52;;;;;;;15.40;6.70;;;;;;;14.03;100.00;100836.24;106055;1291;61889;-85
2023/10/02 02:22:31;;;;;;;17.70;6.70;;;;;;;14.02;100.00;100835.86;106179;1291;59191;-85
2023/10/02 02:24:58;;;;;;;16.30;6.90;;;;;;;13.98;100.00;100836.10;106165;1291;75166;-84
2023/10/02 02:27:24;;;;;;;21.50;6.30;;;;;;;13.95;100.00;100837.36;105901;1292;72285;-89
2023/10/02 02:29:54;;;;;;;14.00;5.90;;;;;;;13.92;100.00;100836.65;105815;1292;59129;-84
2023/10/02 02:32:36;;;;;;;12.20;5.60;;;;;;;13.89;100.00;100831.52;106038;1292;62529;-84
2023/10/02 02:35:04;;;;;;;13.10;5.70;;;;;;;13.90;100.00;100834.65;105842;1293;60270;-85
2023/10/02 02:37:30;;;;;;;13.50;5.50;;;;;;;13.86;100.00;100834.13;105825;1293;75291;-86
2023/10/02 02:40:21;;;;;;;16.30;5.90;;;;;;;13.84;100.00;100828.88;106054;1293;59543;-83
2023/10/02 02:42:41;;;;;;;17.10;5.60;;;;;;;13.83;100.00;100832.30;106005;1292;73423;-81
2023/10/02 02:45:24;;;;;;;14.40;5.40;;;;;;;13.82;100.00;100837.77;105802;1292;59588;-83
2023/10/02 02:47:54;;;;;;;13.90;5.50;;;;;;;13.81;100.00;100833.55;106033;1291;60041;-83
2023/10/02 02:50:28;;;;;;;13.20;5.00;;;;;;;13.81;100.00;100834.38;106061;1291;74583;-84
2023/10/02 02:55:39;;;;;;;13.10;4.80;;;;;;;13.75;100.00;100830.64;106673;1285;71193;-83
2023/10/02 02:58:06;;;;;;;15.40;5.70;;;;;;;13.74;100.00;100835.84;106579;1280;59027;-88
2023/10/02 03:00:35;;;;;;;21.40;5.70;;;;;;;13.73;100.00;100835.64;107222;1280;59047;-84
2023/10/02 03:03:02;;;;;;;15.60;4.30;;;;;;;13.71;100.00;100833.36;107041;1280;75380;-84
2023/10/02 03:05:43;;;;;;;15.70;5.20;;;;;;;13.71;100.00;100833.05;107347;1280;74452;-84
2023/10/02 03:08:11;;;;;;;13.20;4.80;;;;;;;13.72;100.00;100831.25;107142;1280;73840;-79
2023/10/02 03:10:37;;;;;;;13.70;4.60;;;;;;;13.71;100.00;100830.88;107144;1280;60982;-82
2023/10/02 03:13:15;;;;;;;11.80;4.50;;;;;;;13.70;100.00;100825.66;107271;1280;59032;-84
2023/10/02 03:15:48;;;;;;;12.70;4.80;;;;;;;13.74;100.00;100830.21;107335;1280;75461;-84
2023/10/02 03:18:30;;;;;;;13.20;4.10;;;;;;;13.74;100.00;100827.02;107066;1280;74100;-87
2023/10/02 03:20:59;;;;;;;10.60;4.30;;;;;;;13.74;100.00;100828.09;107168;1280;72296;-79
2023/10/02 03:23:29;;;;;;;11.20;4.80;;;;;;;13.73;100.00;100827.56;107185;1280;61904;-83
2023/10/02 03:26:00;;;;;;;15.20;4.30;;;;;;;13.72;100.00;100834.17;107340;1280;60130;-82
2023/10/02 03:28:33;;;;;;;10.40;4.50;;;;;;;13.70;100.00;100837.91;107356;1280;75419;-84
2023/10/02 03:31:00;;;;;;;12.70;4.60;;;;;;;13.70;100.00;100843.88;107366;1280;73211;-85
2023/10/02 03:33:31;;;;;;;12.70;5.00;;;;;;;13.69;100.00;100846.25;107158;1281;72473;-82
2023/10/02 03:36:09;;;;;;;12.90;5.00;;;;;;;13.69;100.00;100850.98;107255;1280;62554;-83
2023/10/02 03:38:42;;;;;;;12.60;4.50;;;;;;;13.68;100.00;100850.00;107159;1280;60242;-83
2023/10/02 03:41:10;;;;;;;14.50;4.70;;;;;;;13.67;100.00;100854.33;107059;1280;75428;-83
2023/10/02 03:43:42;;;;;;;17.50;4.80;;;;;;;13.67;100.00;100853.08;107040;1280;72704;-81
2023/10/02 03:46:23;;;;;;;12.50;4.60;;;;;;;13.66;100.00;100856.94;106872;1285;72753;-81
2023/10/02 03:48:58;;;;;;;8.80;4.00;;;;;;;13.66;100.00;100861.00;106848;1284;62159;-81
2023/10/02 03:51:36;;;;;;;15.80;5.20;;;;;;;13.67;100.00;100855.30;106716;1285;60999;-89
2023/10/02 03:54:17;;;;;;;13.40;4.50;;;;;;;13.68;100.00;100853.08;106655;1285;74958;-82
2023/10/02 03:56:51;;;;;;;19.30;5.50;;;;;;;13.69;100.00;100852.32;106766;1284;73664;-85
2023/10/02 03:59:17;;;;;;;;;;;;;;;13.71;100.00;100853.63;106734;1285;73356;-82
2023/10/02 04:01:43;;;;;;;11.20;4.30;;;;;;;13.73;100.00;100851.94;106540;1285;59008;-83
2023/10/02 04:06:44;;;;;;;17.60;4.80;;;;;;;13.78;100.00;100854.69;106870;1285;74514;-84
2023/10/02 04:09:21;;;;;;;14.90;4.50;;;;;;;13.80;100.00;100858.09;106708;1284;73568;-85
2023/10/02 04:11:51;;;;;;;13.70;4.20;;;;;;;13.84;100.00;100860.64;106730;1284;71644;-90
2023/10/02 04:14:33;;;;;;;11.90;4.50;;;;;;;13.89;100.00;100862.52;106565;1288;61941;-83
2023/10/02 04:17:59;;;;;;;;;;;;;;;;;;;;;
2023/10/02 04:19:49;;;;;;;11.90;3.70;;;;;;;14.02;100.00;100870.12;106280;1288;74372;-84
2023/10/02 04:22:27;;;;;;;12.00;4.20;;;;;;;14.08;100.00;100875.84;106173;1288;73642;-83
2023/10/02 04:25:15;;;;;;;8.50;3.60;;;;;;;14.15;100.00;100875.27;106162;1291;72137;-85
2023/10/02 04:33:08;;;;;;;10.70;3.90;;;;;;;14.33;100.00;100872.61;106289;1291;73259;-84
2023/10/02 04:35:52;;;;;;;11.10;3.10;;;;;;;14.39;100.00;100873.08;106120;1295;74330;-91
2023/10/02 04:38:47;;;;;;;11.80;3.60;;;;;;;14.46;100.00;100880.02;106182;1289;73412;-81
2023/10/02 04:41:19;;;;;;;10.20;4.00;;;;;;;14.54;100.00;100879.63;106273;1291;62238;-83
2023/10/02 04:43:48;;;;;;;13.50;3.40;;;;;;;14.63;100.00;100875.96;106169;1289;60110;-84
2023/10/02 04:46:14;;;;;;;14.10;3.60;;;;;;;14.70;100.00;100876.46;106518;1288;75909;-88
2023/10/02 04:48:54;;;;;;;11.20;3.70;;;;;;;14.77;100.00;100880.05;106586;1286;59752;-89
2023/10/02 04:51:22;;;;;;;10.20;3.40;;;;;;;14.85;100.00;100882.60;106743;1283;73808;-84
2023/10/02 04:53:48;;;;;;;13.70;3.70;;;;;;;14.97;100.00;100883.51;106980;1283;61607;-88
2023/10/02 04:58:51;;;;;;;9.90;3.20;;;;;;;15.25;100.00;100890.30;107325;1280;74441;-86
2023/10/02 05:01:25;;;;;;;15.50;3.60;;;;;;;15.42;100.00;100892.77;106837;1280;73614;-82
2023/10/02 05:03:54;;;;;;;8.90;3.50;;;;;;;15.62;100.00;100895.26;106731;1280;71345;-84
2023/10/02 05:14:29;;;;;;;11.40;3.60;;;;;;;16.85;100.00;100898.48;107322;1280;73386;-83
2023/10/02 05:17:20;;;;;;;10.00;3.60;;;;;;;17.21;100.00;100901.88;107064;1281;73447;-88
2023/10/02 05:20:04;;;;;;;10.10;2.90;;;;;;;17.80;100.00;100905.02;107268;1280;61746;-83
2023/10/02 05:22:36;;;;;;;13.40;4.20;;;;;;;18.07;100.00;100908.69;107269;1279;61219;-88
2023/10/02 05:25:07;;;;;;;10.60;3.50;;;;;;;18.47;100.00;100910.92;106893;1280;74811;-87
2023/10/02 05:27:38;;;;;;;8.90;3.40;;;;;;;19.19;100.00;100907.81;106892;1279;73281;-89
2023/10/02 05:30:17;;;;;;;14.20;4.10;;;;;;;19.67;100.00;100904.01;107024;1281;71918;-92
2023/10/02 05:32:51;;;;;;;13.70;4.40;;;;;;;20.00;100.00;100904.21;107160;1281;62138;-89
2023/10/02 05:35:18;;;;;;;10.00;3.60;;;;;;;20.44;100.00;100908.42;106545;1283;60064;-88
2023/10/02 05:37:51;;;;;;;9.40;3.60;;;;;;;20.89;100.00;100907.52;106417;1289;59500;-91
2023/10/02 05:45:40;;;;;;;15.80;3.80;;;;;;;23.13;90.31;100920.20;106234;1291;59313;-85
2023/10/02 05:50:54;;;;;;;7.70;3.40;;;;;;;23.77;75.14;100909.55;106372;1293;74499;-89
2023/10/02 05:53:34;;;;;;;10.40;3.80;;;;;;;23.34;74.79;100915.91;106407;1289;73500;-89
2023/10/02 05:58:41;;;;;;;10.20;4.00;;;;;;;22.28;77.08;100924.83;106318;1291;60068;-86
2023/10/02 06:05:24;;;;;;;;;;;;;;;;;;;;;
2023/10/02 06:14:48;;;;;;;;;;;;;;;;;;;;;
2023/10/02 06:17:29;;;;;;;;;;;;;;;;;;;;;
2023/10/02 06:19:55;;;;;;;11.40;4.00;;;;;;;21.01;94.62;100931.77;103316;1323;75984;-87
2023/10/02 06:22:47;;;;;;;11.40;4.20;;;;;;;21.69;89.61;100930.92;103280;1324;59290;-87
2023/10/02 06:25:28;;;;;;;;;;;;;;;;;;;;;
2023/10/02 06:28:22;;;;;;;13.30;3.80;;;;;;;23.28;75.84;100930.89;102902;1330;60918;-91
2023/10/02 06:33:59;;;;;;;;;;;;;;;;;;;;;
2023/10/02 06:36:38;;;;;;;;;;;;;;;;;;;;;
2023/10/02 06:39:06;;;;;;;10.40;3.10;;;;;;;23.43;70.66;100927.17;102506;1335;74161;-88
2023/10/02 06:41:47;;;;;;;;;;;;;;;;;;;;;
2023/10/02 06:44:25;;;;;;;;;;;;;;;;;;;;;
2023/10/02 06:47:23;;;;;;;10.60;3.10;;;;;;;24.95;60.86;100926.77;103325;1324;76260;-86
2023/10/02 06:50:14;;;;;;;;;;;;;;;;;;;;;
2023/10/02 06:53:00;;;;;;;;;;;;;;;;;;;;;
2023/10/02 06:55:37;;;;;;;15.00;3.90;;;;;;;25.22;57.62;100939.17;104800;1308;60007;-81
2023/10/02 06:58:07;;;;;;;14.70;3.70;;;;;;;25.18;56.87;100937.48;105304;1301;59011;-82
2023/10/02 07:04:18;;;;;;;;;;;;;;;;;;;;;
2023/10/02 07:07:02;;;;;;;;;;;;;;;;;;;;;
2023/10/02 07:09:33;;;;;;;16.20;3.80;;;;;;;22.78;58.82;100951.92;104733;1308;60447;-80
2023/10/02 07:12:08;;;;;;;11.30;3.30;;;;;;;22.30;60.24;100956.23;105218;1300;61502;-82
2023/10/02 07:15:10;;;;;;;8.60;3.50;;;;;;;22.83;63.87;100957.68;105455;1300;74547;-86
2023/10/02 07:21:31;;;;;;;;;;;;;;;;;;;;;
2023/10/02 07:24:39;;;;;;;;;;;;;;;;;;;;;
2023/10/02 07:27:22;;;;;;;11.60;3.40;;;;;;;29.37;48.42;100959.42;104972;1306;60335;-80
2023/10/02 07:30:07;;;;;;;;;;;;;;;30.64;45.35;100961.95;104833;1305;75224;-86
2023/10/02 07:33:12;;;;;;;;;;;;;;;;;;;;;
2023/10/02 07:36:18;;;;;;;;;;;;;;;;;;;;;
2023/10/02 07:39:32;;;;;;;;;;;;;;;;;;;;;
2023/10/02 07:41:56;;;;;;;;;;;;;;;;;;;;;
2023/10/02 07:44:52;;;;;;;;;;;;;;;;;;;;;
2023/10/02 07:47:34;;;;;;;;;;;;;;;;;;;;;
2023/10/02 07:50:33;;;;;;;;;;;;;;;;;;;;;
2023/10/02 07:53:48;;;;;;;;;;;;;;;;;;;;;
2023/10/02 07:56:52;;;;;;;;;;;;;;;;;;;;;
2023/10/02 07:59:57;;;;;;;;;;;;;;;;;;;;;
2023/10/02 08:03:39;;;;;;;;;;;;;;;;;;;;;
2023/10/02 08:06:42;;;;;;;10.10;2.70;;;;;;;24.93;45.52;100984.18;105648;1298;72560;-82
2023/10/02 08:12:29;;;;;;;8.90;3.40;;;;;;;25.67;44.73;100984.80;105715;1298;58895;-80
2023/10/02 08:15:26;;;;;;;11.80;3.30;;;;;;;25.61;45.17;100990.80;105594;1298;73220;-81
2023/10/02 08:23:41;;;;;;;;;;;;;;;;;;;;;
2023/10/02 08:26:14;;;;;;;7.80;3.00;;;;;;;25.59;44.79;100991.95;104775;1306;59113;-79
2023/10/02 08:28:46;;;;;;;7.60;2.90;;;;;;;25.54;44.65;100994.47;105209;1306;74671;-82
2023/10/02 08:31:14;;;;;;;17.50;3.30;;;;;;;25.33;44.43;101002.00;104936;1306;72588;-87
2023/10/02 08:33:56;;;;;;;;;;;;;;;;;;;;;
2023/10/02 08:36:32;;;;;;;;;;;;;;;;;;;;;
2023/10/02 09:32:47;;;;;;;;;;;;;;;;;;;;;
2023/10/02 09:55:40;;;;;;;17.20;3.80;;;;;;;26.88;36.03;100987.39;103303;1288;615124;-80
2023/10/02 09:58:26;;;;;;;15.60;3.80;;;;;;;26.13;36.16;100995.42;103192;1289;193206;-79
2023/10/02 10:04:08;;;;;;;10.50;3.70;;;;;;;24.34;38.34;100988.65;102750;1291;71067;-80
2023/10/02 10:17:25;;;;;;;10.50;3.80;;;;;;;23.16;40.27;100995.02;101370;1311;60342;-81
2023/10/02 10:20:32;;;;;;;23.50;4.80;;;;;;;22.94;39.73;100992.66;101578;1311;74235;-84
2023/10/02 10:23:41;;;;;;;;;;;;;;;;;;;;;
2023/10/02 10:26:38;;;;;;;11.80;4.00;;;;;;;22.61;40.47;100994.66;101258;1309;73643;-85
2023/10/02 10:29:41;;;;;;;14.40;4.00;;;;;;;22.52;40.71;100987.56;104341;1312;60538;-87
2023/10/02 10:32:36;;;;;;;14.70;4.00;;;;;;;22.45;41.29;100986.27;104401;1311;60436;-81
2023/10/02 10:52:24;;;;;;;11.10;3.70;;;;;;;22.41;40.01;100991.36;103925;1281;613542;-79
2023/10/02 10:54:53;;;;;;;12.10;3.70;;;;;;;22.30;40.70;100997.48;103087;1282;223036;-82
2023/10/02 10:57:19;;;;;;;9.00;3.80;;;;;;;22.20;40.48;100994.41;103715;1282;60657;-80
2023/10/02 10:59:46;;;;;;;16.60;4.70;;;;;;;22.07;40.98;100991.41;103818;1282;60372;-87
2023/10/02 11:02:32;;;;;;;11.40;4.00;;;;;;;22.05;41.06;100991.54;102823;1291;600837;-80
2023/10/02 11:05:02;;;;;;;14.30;4.20;;;;;;;21.93;40.99;100996.20;103136;1297;60345;-78
2023/10/02 11:07:47;;;;;;;13.70;4.00;;;;;;;21.87;40.73;101000.36;103481;1285;600407;-77
2023/10/02 11:10:19;;;;;;;13.40;4.30;;;;;;;21.76;40.85;100992.98;103402;1285;60776;-81
2023/10/02 11:12:58;;;;;;;13.40;4.50;;;;;;;21.84;41.32;100995.59;103580;1285;60318;-85
2023/10/02 11:15:47;;;;;;;16.40;4.70;;;;;;;21.89;40.48;101000.02;103337;1288;73662;-82
2023/10/02 11:18:22;;;;;;;22.10;4.70;;;;;;;21.72;39.79;100999.61;103639;1285;74935;-83
2023/10/02 11:20:54;;;;;;;16.30;4.60;;;;;;;21.72;40.06;100999.09;101300;1289;3025658;-87
2023/10/02 11:23:37;;;;;;;19.90;4.80;;;;;;;21.78;39.49;101002.56;103500;1292;62287;-81
2023/10/02 11:26:15;;;;;;;14.70;4.10;;;;;;;21.68;39.54;101000.62;103690;1285;60693;-85
2023/10/02 11:29:20;;;;;;;18.80;4.60;;;;;;;21.67;39.84;101002.61;103490;1286;600970;-87
2023/10/02 11:34:47;;;;;;;14.70;3.90;;;;;;;21.58;39.89;101002.38;103736;1285;60296;-77
2023/10/02 11:37:17;;;;;;;21.60;4.60;;;;;;;21.54;39.90;101000.27;103405;1285;73432;-83
2023/10/02 11:40:03;;;;;;;11.30;4.10;;;;;;;21.56;40.24;100998.09;102916;1295;600344;-81
2023/10/02 11:42:29;;;;;;;14.20;4.20;;;;;;;21.67;39.71;101005.13;103183;1297;60374;-84
2023/10/02 11:44:54;;;;;;;14.30;4.10;;;;;;;21.63;39.15;101003.63;103249;1297;60473;-86
2023/10/02 11:47:20;;;;;;;15.20;4.00;;;;;;;21.67;39.60;101000.20;103174;1298;60495;-82
2023/10/02 11:49:45;;;;;;;14.30;4.30;;;;;;;21.78;39.92;101006.95;103159;1292;60905;-79
2023/10/02 11:52:15;;;;;;;15.60;4.50;;;;;;;21.83;39.84;101011.80;103226;1295;60406;-81
2023/10/02 11:54:43;;;;;;;13.60;4.20;;;;;;;21.76;39.99;101005.99;102845;1291;383374;-80
2023/10/02 11:57:10;;;;;;;12.30;4.20;;;;;;;21.75;40.21;101007.96;102895;1298;72105;-81
2023/10/02 11:59:43;;;;;;;13.90;3.70;;;;;;;21.80;40.17;101007.27;103008;1293;73212;-79
2023/10/02 12:05:51;;;;;;;13.40;4.20;;;;;;;21.78;39.76;101016.13;102975;1291;616519;-78
2023/10/02 12:08:21;;;;;;;13.70;4.20;;;;;;;21.62;39.54;101012.92;103342;1288;60430;-80
2023/10/02 12:10:47;;;;;;;13.20;4.00;;;;;;;21.45;39.58;101011.51;103292;1288;60760;-77
2023/10/02 12:13:12;;;;;;;13.90;4.20;;;;;;;21.29;39.61;101008.40;103340;1289;60326;-80
2023/10/02 12:15:46;;;;;;;14.00;4.40;;;;;;;21.17;39.85;101009.19;103103;1292;60502;-80
2023/10/02 12:18:14;;;;;;;16.20;3.90;;;;;;;21.07;40.69;101012.27;102982;1285;395924;-80
2023/10/02 12:20:40;;;;;;;18.90;4.50;;;;;;;21.07;40.53;101009.35;103213;1285;60411;-79
2023/10/02 12:23:05;;;;;;;14.20;4.30;;;;;;;21.00;40.64;101013.67;103569;1285;60329;-83
2023/10/02 12:25:36;;;;;;;13.80;4.50;;;;;;;20.89;40.58;101016.68;103116;1294;60303;-81
2023/10/02 12:31:36;;;;;;;77.00;6.80;;;;;;;20.60;40.84;101024.04;104000;1282;600170;-84
2023/10/02 12:34:28;;;;;;;27.70;4.70;;;;;;;20.45;41.22;101020.16;102933;1292;600947;-82
2023/10/02 12:40:34;;;;;;;13.50;4.00;;;;;;;20.20;41.20;101023.89;103468;1288;601072;-81
2023/10/02 12:43:08;;;;;;;14.90;4.00;;;;;;;20.09;41.52;101028.77;103522;1289;61928;-80
2023/10/02 12:46:09;;;;;;;13.80;4.20;;;;;;;20.08;41.82;101027.52;102832;1295;599747;-79
2023/10/02 12:49:03;;;;;;;14.50;4.90;;;;;;;20.09;41.66;101028.92;103512;1291;601132;-85
2023/10/02 12:51:40;;;;;;;;;;;;;;;;;;;;;
2023/10/02 12:54:09;;;;;;;17.80;4.70;;;;;;;19.97;41.55;101033.62;103281;1289;60529;-87
2023/10/02 12:56:38;;;;;;;16.90;4.80;;;;;;;19.92;41.37;101036.20;103378;1294;72757;-85
2023/10/02 12:59:13;;;;;;;10.10;4.00;;;;;;;19.84;41.53;101037.07;103167;1289;74018;-82
2023/10/02 13:01:39;;;;;;;16.40;4.30;;;;;;;19.78;42.03;101041.48;98638;1294;6286694;-83
2023/10/02 13:04:05;;;;;;;14.80;4.40;;;;;;;19.75;41.90;101042.47;103257;1293;60392;-81
2023/10/02 13:06:34;;;;;;;13.80;4.40;;;;;;;19.68;42.32;101046.64;103337;1286;60398;-81
2023/10/02 13:09:19;;;;;;;13.80;4.30;;;;;;;19.65;42.27;101051.02;103364;1286;73607;-81
2023/10/02 13:11:44;;;;;;;14.30;4.30;;;;;;;19.61;42.22;101052.52;106337;1286;74079;-86
2023/10/02 13:14:16;;;;;;;10.30;4.00;;;;;;;19.55;41.98;101055.89;106511;1286;58412;-81
2023/10/02 13:16:46;;;;;;;14.00;4.20;;;;;;;19.47;42.04;101055.34;106699;1287;59417;-82
2023/10/02 13:19:12;;;;;;;15.60;5.20;;;;;;;19.41;41.88;101050.44;106664;1286;73701;-82
2023/10/02 13:21:41;;;;;;;14.50;4.20;;;;;;;19.38;41.98;101050.79;106539;1286;58269;-82
2023/10/02 13:24:14;;;;;;;13.20;4.60;;;;;;;19.38;42.10;101048.98;106675;1286;72409;-79
2023/10/02 13:26:41;;;;;;;14.00;4.30;;;;;;;19.35;42.01;101047.84;106315;1292;59472;-83
2023/10/02 13:29:07;;;;;;;16.90;5.00;;;;;;;19.38;42.11;101048.61;106295;1288;58832;-80
2023/10/02 13:31:37;;;;;;;12.80;4.00;;;;;;;19.41;42.18;101047.77;106529;1288;58034;-80
2023/10/02 13:34:05;;;;;;;13.60;3.80;;;;;;;19.44;42.19;101045.96;106447;1289;73235;-83
2023/10/02 13:36:31;;;;;;;16.60;4.50;;;;;;;19.49;42.34;101053.60;106447;1288;72556;-83
2023/10/02 13:45:57;;;;;;;12.60;4.40;;;;;;;19.79;41.99;101046.34;103012;1292;600962;-80
2023/10/02 13:48:23;;;;;;;12.30;4.30;;;;;;;19.79;42.04;101049.77;103011;1292;60352;-82
2023/10/02 13:50:49;;;;;;;14.40;4.10;;;;;;;19.86;42.09;101056.23;103197;1291;60456;-80
2023/10/02 13:53:14;;;;;;;12.50;3.80;;;;;;;19.88;41.73;101053.33;103328;1290;60355;-83
2023/10/02 13:55:40;;;;;;;11.50;3.80;;;;;;;19.82;41.58;101055.81;103197;1296;60264;-84
2023/10/02 13:58:06;;;;;;;14.10;4.70;;;;;;;19.70;41.55;101054.50;103095;1292;60401;-88
2023/10/02 14:00:38;;;;;;;16.20;4.90;;;;;;;19.61;41.87;101059.40;103217;1288;414491;-81
2023/10/02 14:03:07;;;;;;;14.70;4.40;;;;;;;19.50;41.65;101063.32;103256;1291;73632;-81
2023/10/02 14:05:35;;;;;;;22.00;5.80;;;;;;;19.40;41.74;101065.89;102986;1291;74978;-83
2023/10/02 14:08:01;;;;;;;12.70;4.00;;;;;;;19.31;41.89;101071.57;103092;1291;74685;-84
2023/10/02 14:10:26;;;;;;;16.90;4.50;;;;;;;19.19;41.79;101072.35;103085;1294;60581;-77
2023/10/02 14:12:52;;;;;;;21.90;4.70;;;;;;;19.08;42.17;101073.09;103240;1294;60404;-84
2023/10/02 14:15:19;;;;;;;18.50;5.00;;;;;;;18.98;42.54;101077.77;103246;1294;60486;-79
2023/10/02 14:17:46;;;;;;;19.20;5.40;;;;;;;18.87;42.58;101079.98;103117;1294;60425;-85
2023/10/02 14:20:15;;;;;;;18.60;5.80;;;;;;;18.73;42.77;101082.14;103280;1291;60395;-84
2023/10/02 14:22:48;;;;;;;13.00;4.40;;;;;;;18.61;43.07;101084.92;102994;1290;62016;-81
2023/10/02 14:25:50;;;;;;;18.40;5.30;;;;;;;18.53;43.37;101087.58;102739;1291;615153;-78
2023/10/02 14:28:20;;;;;;;16.10;4.40;;;;;;;18.40;43.67;101087.86;103160;1297;60403;-83
2023/10/02 14:30:48;;;;;;;11.20;4.20;;;;;;;18.32;43.98;101096.99;103117;1290;60500;-85
2023/10/02 14:33:14;;;;;;;17.40;4.40;;;;;;;18.25;44.19;101101.92;103258;1289;72765;-81
2023/10/02 14:35:40;;;;;;;17.70;4.20;;;;;;;18.20;44.39;101105.06;103284;1288;60379;-82
2023/10/02 14:38:05;;;;;;;18.20;4.60;;;;;;;18.12;44.75;101108.67;103146;1288;382812;-83
2023/10/02 14:40:33;;;;;;;18.00;4.30;;;;;;;18.05;44.95;101110.48;103576;1288;60408;-82
2023/10/02 14:43:02;;;;;;;14.40;4.70;;;;;;;17.99;45.18;101112.92;103553;1291;60332;-80
2023/10/02 14:45:29;;;;;;;22.50;4.70;;;;;;;17.91;45.34;101114.96;103633;1287;72719;-80
2023/10/02 14:47:56;;;;;;;16.80;4.40;;;;;;;17.82;45.74;101118.59;103432;1288;75705;-84
2023/10/02 14:50:23;;;;;;;13.90;4.50;;;;;;;17.73;45.97;101126.33;103676;1288;74073;-87
2023/10/02 14:52:50;;;;;;;16.50;4.90;;;;;;;17.62;46.19;101129.09;103518;1288;61377;-86
2023/10/02 14:58:47;;;;;;;12.80;4.40;;;;;;;17.45;46.77;101129.70;103150;1288;600752;-80
2023/10/02 15:01:16;;;;;;;21.70;6.00;;;;;;;17.35;46.84;101130.16;103340;1289;60394;-79
2023/10/02 15:03:42;;;;;;;12.80;4.50;;;;;;;17.26;47.11;101135.02;103340;1289;60638;-82
2023/10/02 15:06:10;;;;;;;17.60;5.40;;;;;;;17.16;47.37;101136.94;103460;1289;60387;-80
2023/10/02 15:08:37;;;;;;;11.60;4.20;;;;;;;17.07;47.67;101141.46;103358;1288;74574;-81
2023/10/02 15:11:15;;;;;;;;;;;;;;;;;;;;;
2023/10/02 15:27:52;;;;;;;20.30;6.40;;;;;;;16.62;49.83;101174.44;101396;1260;6618410;-82
2023/10/02 15:38:33;;;;;;;;;;;;;;;;;;;;;
